TimeEST,TemperatureF,Dew PointF,Humidity,Sea Level PressureIn,VisibilityMPH,Wind Direction,Wind SpeedMPH,Gust SpeedMPH,PrecipitationIn,Events,Conditions,WindDirDegrees,DateUTC
12:51 AM,23.0,18.0,81,30.19,10.0,Calm,Calm,-,N/A,,Mostly Cloudy,0,2013-01-06 05:51:00
1:51 AM,27.0,18.0,69,30.17,10.0,SSE,5.8,-,N/A,,Overcast,150,2013-01-06 06:51:00
2:51 AM,27.0,19.9,75,30.14,1.8,SSE,5.8,-,0.00,Snow,Light Snow,160,2013-01-06 07:51:00
3:14 AM,26.6,21.2,80,30.11,2.5,South,4.6,-,0.00,Snow,Light Snow,170,2013-01-06 08:14:00
3:22 AM,26.6,21.2,80,30.11,3.0,South,4.6,-,0.00,Snow,Light Snow,170,2013-01-06 08:22:00
3:51 AM,27.0,21.0,78,30.11,7.0,South,8.1,-,0.00,Snow,Light Snow,180,2013-01-06 08:51:00
4:51 AM,27.0,23.0,85,30.08,6.0,South,11.5,-,0.00,Snow,Light Snow,170,2013-01-06 09:51:00
5:51 AM,27.0,23.0,85,30.07,9.0,South,8.1,-,0.00,,Scattered Clouds,190,2013-01-06 10:51:00
6:51 AM,26.1,23.0,88,30.07,10.0,South,6.9,-,N/A,,Mostly Cloudy,190,2013-01-06 11:51:00
7:51 AM,27.0,23.0,85,30.04,8.0,South,6.9,-,N/A,,Scattered Clouds,170,2013-01-06 12:51:00
8:51 AM,28.0,24.1,85,30.05,9.0,South,8.1,-,N/A,,Overcast,180,2013-01-06 13:51:00
9:51 AM,28.9,24.1,82,30.05,9.0,South,8.1,-,N/A,,Overcast,180,2013-01-06 14:51:00
10:51 AM,30.9,25.0,79,30.04,10.0,South,5.8,-,N/A,,Overcast,170,2013-01-06 15:51:00
11:51 AM,32.0,25.0,75,30.00,10.0,SSE,5.8,-,N/A,,Mostly Cloudy,160,2013-01-06 16:51:00
12:51 PM,36.0,25.0,64,29.96,10.0,SE,5.8,-,N/A,,Scattered Clouds,140,2013-01-06 17:51:00
1:51 PM,37.9,26.1,62,29.95,10.0,South,3.5,-,N/A,,Partly Cloudy,190,2013-01-06 18:51:00
2:51 PM,39.0,25.0,57,29.93,10.0,SE,5.8,-,N/A,,Scattered Clouds,140,2013-01-06 19:51:00
3:51 PM,39.2,26.6,61,29.92,10.0,South,3.5,-,N/A,,Mostly Cloudy,170,2013-01-06 20:51:00
4:51 PM,37.9,25.0,60,29.94,10.0,South,4.6,-,N/A,,Overcast,170,2013-01-06 21:51:00
5:51 PM,37.4,26.6,65,29.95,10.0,SW,3.5,-,N/A,,Overcast,230,2013-01-06 22:51:00
6:51 PM,35.1,26.1,70,29.97,10.0,Calm,Calm,-,N/A,,Overcast,0,2013-01-06 23:51:00
7:51 PM,34.0,28.0,79,29.98,10.0,Calm,Calm,-,N/A,,Overcast,0,2013-01-07 00:51:00
8:51 PM,33.1,28.0,82,29.98,10.0,Calm,Calm,-,N/A,,Overcast,0,2013-01-07 01:51:00
9:51 PM,34.0,28.0,79,29.99,9.0,Calm,Calm,-,0.00,Snow,Light Snow,0,2013-01-07 02:51:00
10:51 PM,33.1,28.0,82,30.00,7.0,Calm,Calm,-,0.00,,Overcast,0,2013-01-07 03:51:00
11:51 PM,33.1,28.9,85,30.01,8.0,Calm,Calm,-,0.00,Rain-Snow,Light Rain,0,2013-01-07 04:51:00